sensor_id;sensor_type;location;lat;lon;timestamp;P1;durP1;ratioP1;P2;durP2;ratioP2
21758;SDS011;11041;50.854;20.580;2022-08-21T00:34:50;11.35;;;6.93;;
21758;SDS011;11041;50.854;20.580;2022-08-21T00:37:18;9.32;;;6.63;;
21758;SDS011;11041;50.854;20.580;2022-08-21T00:39:46;9.73;;;7.15;;
21758;SDS011;11041;50.854;20.580;2022-08-21T00:42:14;13.75;;;7.05;;
21758;SDS011;11041;50.854;20.580;2022-08-21T00:44:42;8.80;;;6.63;;
21758;SDS011;11041;50.854;20.580;2022-08-21T00:47:12;8.07;;;6.80;;
21758;SDS011;11041;50.854;20.580;2022-08-21T00:49:39;7.30;;;6.03;;
21758;SDS011;11041;50.854;20.580;2022-08-21T00:52:07;9.68;;;6.93;;
21758;SDS011;11041;50.854;20.580;2022-08-21T00:54:43;9.18;;;6.55;;
21758;SDS011;11041;50.854;20.580;2022-08-21T00:57:17;7.90;;;6.93;;
21758;SDS011;11041;50.854;20.580;2022-08-21T00:59:51;8.90;;;6.53;;
21758;SDS011;11041;50.854;20.580;2022-08-21T01:02:24;8.90;;;6.80;;
21758;SDS011;11041;50.854;20.580;2022-08-21T01:04:51;11.35;;;5.80;;
21758;SDS011;11041;50.854;20.580;2022-08-21T01:07:17;7.80;;;6.78;;
21758;SDS011;11041;50.854;20.580;2022-08-21T01:09:46;8.48;;;6.60;;
21758;SDS011;11041;50.854;20.580;2022-08-21T01:12:13;8.35;;;6.63;;
21758;SDS011;11041;50.854;20.580;2022-08-21T01:14:41;8.55;;;6.82;;
21758;SDS011;11041;50.854;20.580;2022-08-21T01:17:11;9.30;;;6.72;;
21758;SDS011;11041;50.854;20.580;2022-08-21T01:19:41;8.63;;;6.70;;
21758;SDS011;11041;50.854;20.580;2022-08-21T01:22:08;9.48;;;6.65;;
21758;SDS011;11041;50.854;20.580;2022-08-21T01:24:36;7.55;;;6.30;;
21758;SDS011;11041;50.854;20.580;2022-08-21T01:27:02;9.23;;;6.45;;
21758;SDS011;11041;50.854;20.580;2022-08-21T01:29:32;8.88;;;6.30;;
21758;SDS011;11041;50.854;20.580;2022-08-21T01:32:24;9.50;;;6.90;;
21758;SDS011;11041;50.854;20.580;2022-08-21T01:34:51;8.25;;;6.78;;
21758;SDS011;11041;50.854;20.580;2022-08-21T01:37:18;11.15;;;7.00;;
21758;SDS011;11041;50.854;20.580;2022-08-21T01:39:47;7.93;;;7.13;;
21758;SDS011;11041;50.854;20.580;2022-08-21T01:42:14;7.53;;;6.82;;
21758;SDS011;11041;50.854;20.580;2022-08-21T01:44:41;8.70;;;7.03;;
21758;SDS011;11041;50.854;20.580;2022-08-21T01:47:09;8.93;;;7.25;;
21758;SDS011;11041;50.854;20.580;2022-08-21T01:49:39;10.63;;;7.18;;
21758;SDS011;11041;50.854;20.580;2022-08-21T01:52:08;7.65;;;6.95;;
21758;SDS011;11041;50.854;20.580;2022-08-21T01:54:36;9.15;;;7.03;;
21758;SDS011;11041;50.854;20.580;2022-08-21T01:57:04;7.55;;;6.72;;
21758;SDS011;11041;50.854;20.580;2022-08-21T01:59:31;9.05;;;6.68;;
21758;SDS011;11041;50.854;20.580;2022-08-21T02:02:00;7.68;;;6.70;;
21758;SDS011;11041;50.854;20.580;2022-08-21T02:04:27;9.43;;;6.75;;
21758;SDS011;11041;50.854;20.580;2022-08-21T02:06:53;9.93;;;6.78;;
21758;SDS011;11041;50.854;20.580;2022-08-21T02:09:20;10.52;;;6.75;;
21758;SDS011;11041;50.854;20.580;2022-08-21T02:11:47;8.50;;;6.88;;
21758;SDS011;11041;50.854;20.580;2022-08-21T02:14:14;9.15;;;7.43;;
21758;SDS011;11041;50.854;20.580;2022-08-21T02:16:42;7.93;;;6.50;;
21758;SDS011;11041;50.854;20.580;2022-08-21T02:19:10;10.30;;;7.05;;
21758;SDS011;11041;50.854;20.580;2022-08-21T02:21:40;7.72;;;6.50;;
21758;SDS011;11041;50.854;20.580;2022-08-21T02:24:08;7.10;;;6.30;;
21758;SDS011;11041;50.854;20.580;2022-08-21T02:26:36;8.98;;;6.53;;
21758;SDS011;11041;50.854;20.580;2022-08-21T02:29:04;8.18;;;6.35;;
21758;SDS011;11041;50.854;20.580;2022-08-21T02:31:30;10.38;;;6.85;;
21758;SDS011;11041;50.854;20.580;2022-08-21T02:33:57;8.15;;;6.30;;
21758;SDS011;11041;50.854;20.580;2022-08-21T02:36:23;10.07;;;7.07;;
21758;SDS011;11041;50.854;20.580;2022-08-21T02:38:50;8.30;;;6.68;;
21758;SDS011;11041;50.854;20.580;2022-08-21T02:41:17;9.02;;;6.57;;
21758;SDS011;11041;50.854;20.580;2022-08-21T02:43:46;9.93;;;6.80;;
21758;SDS011;11041;50.854;20.580;2022-08-21T02:46:15;8.88;;;6.93;;
21758;SDS011;11041;50.854;20.580;2022-08-21T02:48:45;7.20;;;6.50;;
21758;SDS011;11041;50.854;20.580;2022-08-21T02:51:14;8.88;;;6.90;;
21758;SDS011;11041;50.854;20.580;2022-08-21T02:53:45;8.18;;;7.15;;
21758;SDS011;11041;50.854;20.580;2022-08-21T02:56:14;9.48;;;6.28;;
21758;SDS011;11041;50.854;20.580;2022-08-21T02:58:45;11.98;;;7.30;;
21758;SDS011;11041;50.854;20.580;2022-08-21T03:01:17;8.52;;;6.80;;
21758;SDS011;11041;50.854;20.580;2022-08-21T03:03:45;11.10;;;6.82;;
21758;SDS011;11041;50.854;20.580;2022-08-21T03:06:18;8.18;;;7.07;;
21758;SDS011;11041;50.854;20.580;2022-08-21T03:08:47;9.90;;;7.28;;
21758;SDS011;11041;50.854;20.580;2022-08-21T03:11:14;9.63;;;6.88;;
21758;SDS011;11041;50.854;20.580;2022-08-21T03:13:41;7.53;;;6.35;;
21758;SDS011;11041;50.854;20.580;2022-08-21T03:16:09;8.35;;;6.72;;
21758;SDS011;11041;50.854;20.580;2022-08-21T03:18:35;9.32;;;6.68;;
21758;SDS011;11041;50.854;20.580;2022-08-21T03:21:03;9.07;;;7.07;;
21758;SDS011;11041;50.854;20.580;2022-08-21T03:23:31;7.72;;;6.95;;
21758;SDS011;11041;50.854;20.580;2022-08-21T03:25:57;12.38;;;7.47;;
21758;SDS011;11041;50.854;20.580;2022-08-21T03:28:24;9.30;;;6.78;;
21758;SDS011;11041;50.854;20.580;2022-08-21T03:30:51;9.85;;;7.50;;
21758;SDS011;11041;50.854;20.580;2022-08-21T03:33:19;7.53;;;6.82;;
21758;SDS011;11041;50.854;20.580;2022-08-21T03:35:48;9.05;;;6.80;;
21758;SDS011;11041;50.854;20.580;2022-08-21T03:38:26;11.23;;;7.50;;
21758;SDS011;11041;50.854;20.580;2022-08-21T03:40:56;11.75;;;6.68;;
21758;SDS011;11041;50.854;20.580;2022-08-21T03:43:22;7.78;;;6.95;;
21758;SDS011;11041;50.854;20.580;2022-08-21T03:45:49;7.88;;;6.75;;
21758;SDS011;11041;50.854;20.580;2022-08-21T03:48:15;13.95;;;7.40;;
21758;SDS011;11041;50.854;20.580;2022-08-21T03:50:42;7.53;;;6.68;;
21758;SDS011;11041;50.854;20.580;2022-08-21T03:53:12;12.48;;;7.88;;
21758;SDS011;11041;50.854;20.580;2022-08-21T03:55:41;8.88;;;7.38;;
21758;SDS011;11041;50.854;20.580;2022-08-21T03:58:07;9.63;;;6.85;;
21758;SDS011;11041;50.854;20.580;2022-08-21T04:00:34;13.75;;;7.05;;
21758;SDS011;11041;50.854;20.580;2022-08-21T04:03:00;8.02;;;6.53;;
21758;SDS011;11041;50.854;20.580;2022-08-21T04:05:26;8.63;;;6.50;;
21758;SDS011;11041;50.854;20.580;2022-08-21T04:07:54;11.27;;;6.40;;
21758;SDS011;11041;50.854;20.580;2022-08-21T04:10:27;7.40;;;6.60;;
21758;SDS011;11041;50.854;20.580;2022-08-21T04:12:56;7.53;;;6.40;;
21758;SDS011;11041;50.854;20.580;2022-08-21T04:15:24;8.55;;;6.82;;
21758;SDS011;11041;50.854;20.580;2022-08-21T04:17:52;8.35;;;6.88;;
21758;SDS011;11041;50.854;20.580;2022-08-21T04:20:20;9.70;;;7.00;;
21758;SDS011;11041;50.854;20.580;2022-08-21T04:22:48;9.70;;;6.93;;
21758;SDS011;11041;50.854;20.580;2022-08-21T04:25:18;8.38;;;7.32;;
21758;SDS011;11041;50.854;20.580;2022-08-21T04:27:48;12.18;;;7.35;;
21758;SDS011;11041;50.854;20.580;2022-08-21T04:30:16;9.48;;;6.50;;
21758;SDS011;11041;50.854;20.580;2022-08-21T04:32:47;8.57;;;7.20;;
21758;SDS011;11041;50.854;20.580;2022-08-21T04:35:17;8.75;;;6.95;;
21758;SDS011;11041;50.854;20.580;2022-08-21T04:37:48;7.93;;;7.13;;
21758;SDS011;11041;50.854;20.580;2022-08-21T04:40:16;12.30;;;7.30;;
21758;SDS011;11041;50.854;20.580;2022-08-21T04:42:46;7.93;;;7.13;;
21758;SDS011;11041;50.854;20.580;2022-08-21T04:45:24;11.63;;;7.30;;
21758;SDS011;11041;50.854;20.580;2022-08-21T04:48:00;10.38;;;7.28;;
21758;SDS011;11041;50.854;20.580;2022-08-21T04:50:31;9.55;;;6.95;;
21758;SDS011;11041;50.854;20.580;2022-08-21T04:53:05;8.73;;;7.43;;
21758;SDS011;11041;50.854;20.580;2022-08-21T04:55:41;9.23;;;6.95;;
21758;SDS011;11041;50.854;20.580;2022-08-21T04:58:09;9.57;;;7.40;;
21758;SDS011;11041;50.854;20.580;2022-08-21T05:00:40;8.52;;;7.22;;
21758;SDS011;11041;50.854;20.580;2022-08-21T05:03:07;8.80;;;7.38;;
21758;SDS011;11041;50.854;20.580;2022-08-21T05:05:37;12.55;;;7.20;;
21758;SDS011;11041;50.854;20.580;2022-08-21T05:08:05;7.55;;;6.43;;
21758;SDS011;11041;50.854;20.580;2022-08-21T05:10:35;10.43;;;7.53;;
21758;SDS011;11041;50.854;20.580;2022-08-21T05:13:01;12.45;;;7.43;;
21758;SDS011;11041;50.854;20.580;2022-08-21T05:15:28;11.18;;;7.43;;
21758;SDS011;11041;50.854;20.580;2022-08-21T05:17:56;10.10;;;8.35;;
21758;SDS011;11041;50.854;20.580;2022-08-21T05:20:23;9.52;;;6.80;;
21758;SDS011;11041;50.854;20.580;2022-08-21T05:22:49;12.15;;;7.50;;
21758;SDS011;11041;50.854;20.580;2022-08-21T05:25:16;14.38;;;7.28;;
21758;SDS011;11041;50.854;20.580;2022-08-21T05:27:42;9.65;;;7.82;;
21758;SDS011;11041;50.854;20.580;2022-08-21T05:30:09;9.27;;;7.32;;
21758;SDS011;11041;50.854;20.580;2022-08-21T05:32:36;8.00;;;6.60;;
21758;SDS011;11041;50.854;20.580;2022-08-21T05:35:03;9.20;;;6.60;;
21758;SDS011;11041;50.854;20.580;2022-08-21T05:37:32;9.18;;;6.80;;
21758;SDS011;11041;50.854;20.580;2022-08-21T05:40:00;7.63;;;6.47;;
21758;SDS011;11041;50.854;20.580;2022-08-21T05:42:30;7.60;;;6.28;;
21758;SDS011;11041;50.854;20.580;2022-08-21T05:44:56;8.40;;;6.40;;
21758;SDS011;11041;50.854;20.580;2022-08-21T05:47:23;8.10;;;7.30;;
21758;SDS011;11041;50.854;20.580;2022-08-21T05:49:49;9.80;;;6.32;;
21758;SDS011;11041;50.854;20.580;2022-08-21T05:52:20;7.25;;;6.35;;
21758;SDS011;11041;50.854;20.580;2022-08-21T05:54:47;8.68;;;6.30;;
21758;SDS011;11041;50.854;20.580;2022-08-21T05:57:15;11.63;;;7.95;;
21758;SDS011;11041;50.854;20.580;2022-08-21T05:59:41;11.00;;;7.65;;
21758;SDS011;11041;50.854;20.580;2022-08-21T06:02:08;10.75;;;6.75;;
21758;SDS011;11041;50.854;20.580;2022-08-21T06:04:35;7.75;;;6.78;;
21758;SDS011;11041;50.854;20.580;2022-08-21T06:07:04;12.90;;;8.80;;
21758;SDS011;11041;50.854;20.580;2022-08-21T06:09:32;9.02;;;7.20;;
21758;SDS011;11041;50.854;20.580;2022-08-21T06:12:03;8.43;;;7.50;;
21758;SDS011;11041;50.854;20.580;2022-08-21T06:14:36;9.32;;;6.70;;
21758;SDS011;11041;50.854;20.580;2022-08-21T06:17:05;13.93;;;7.50;;
21758;SDS011;11041;50.854;20.580;2022-08-21T06:19:35;7.95;;;6.70;;
21758;SDS011;11041;50.854;20.580;2022-08-21T06:22:04;9.15;;;6.75;;
21758;SDS011;11041;50.854;20.580;2022-08-21T06:24:31;7.65;;;6.88;;
21758;SDS011;11041;50.854;20.580;2022-08-21T06:26:58;10.73;;;6.80;;
21758;SDS011;11041;50.854;20.580;2022-08-21T06:29:31;7.38;;;6.65;;
21758;SDS011;11041;50.854;20.580;2022-08-21T06:31:58;14.15;;;7.93;;
21758;SDS011;11041;50.854;20.580;2022-08-21T06:34:28;11.23;;;6.95;;
21758;SDS011;11041;50.854;20.580;2022-08-21T06:36:54;9.35;;;7.00;;
21758;SDS011;11041;50.854;20.580;2022-08-21T06:39:21;9.63;;;7.15;;
21758;SDS011;11041;50.854;20.580;2022-08-21T06:41:48;9.15;;;6.90;;
21758;SDS011;11041;50.854;20.580;2022-08-21T06:44:15;9.40;;;7.38;;
21758;SDS011;11041;50.854;20.580;2022-08-21T06:46:44;8.10;;;6.60;;
21758;SDS011;11041;50.854;20.580;2022-08-21T06:49:10;8.93;;;7.20;;
21758;SDS011;11041;50.854;20.580;2022-08-21T06:51:38;11.60;;;7.55;;
21758;SDS011;11041;50.854;20.580;2022-08-21T06:54:06;12.15;;;6.85;;
21758;SDS011;11041;50.854;20.580;2022-08-21T06:56:32;8.65;;;6.63;;
21758;SDS011;11041;50.854;20.580;2022-08-21T06:59:00;9.60;;;7.22;;
21758;SDS011;11041;50.854;20.580;2022-08-21T07:01:27;9.95;;;6.57;;
21758;SDS011;11041;50.854;20.580;2022-08-21T07:03:53;12.13;;;6.97;;
21758;SDS011;11041;50.854;20.580;2022-08-21T07:06:20;8.05;;;7.10;;
21758;SDS011;11041;50.854;20.580;2022-08-21T07:08:47;14.00;;;8.20;;
21758;SDS011;11041;50.854;20.580;2022-08-21T07:11:15;9.55;;;8.00;;
21758;SDS011;11041;50.854;20.580;2022-08-21T07:13:46;12.07;;;7.22;;
21758;SDS011;11041;50.854;20.580;2022-08-21T07:16:18;10.32;;;7.35;;
21758;SDS011;11041;50.854;20.580;2022-08-21T07:18:46;10.68;;;6.43;;
21758;SDS011;11041;50.854;20.580;2022-08-21T07:21:12;8.75;;;6.38;;
21758;SDS011;11041;50.854;20.580;2022-08-21T07:23:40;11.52;;;6.82;;
21758;SDS011;11041;50.854;20.580;2022-08-21T07:26:11;19.33;;;7.00;;
21758;SDS011;11041;50.854;20.580;2022-08-21T07:28:41;14.50;;;6.80;;
21758;SDS011;11041;50.854;20.580;2022-08-21T07:31:09;10.77;;;7.05;;
21758;SDS011;11041;50.854;20.580;2022-08-21T07:33:39;10.48;;;6.35;;
21758;SDS011;11041;50.854;20.580;2022-08-21T07:36:07;13.70;;;7.03;;
21758;SDS011;11041;50.854;20.580;2022-08-21T07:38:34;10.43;;;6.65;;
21758;SDS011;11041;50.854;20.580;2022-08-21T07:41:01;11.50;;;6.75;;
21758;SDS011;11041;50.854;20.580;2022-08-21T07:43:31;7.20;;;6.55;;
21758;SDS011;11041;50.854;20.580;2022-08-21T07:45:58;7.13;;;6.10;;
21758;SDS011;11041;50.854;20.580;2022-08-21T07:48:24;11.73;;;7.38;;
21758;SDS011;11041;50.854;20.580;2022-08-21T07:50:51;10.20;;;6.75;;
21758;SDS011;11041;50.854;20.580;2022-08-21T07:53:18;8.35;;;6.53;;
21758;SDS011;11041;50.854;20.580;2022-08-21T07:55:44;10.68;;;7.25;;
21758;SDS011;11041;50.854;20.580;2022-08-21T07:58:11;6.82;;;6.00;;
21758;SDS011;11041;50.854;20.580;2022-08-21T08:00:38;11.15;;;6.57;;
21758;SDS011;11041;50.854;20.580;2022-08-21T08:03:06;12.23;;;6.25;;
21758;SDS011;11041;50.854;20.580;2022-08-21T08:05:33;9.63;;;6.22;;
21758;SDS011;11041;50.854;20.580;2022-08-21T08:08:02;18.98;;;6.72;;
21758;SDS011;11041;50.854;20.580;2022-08-21T08:10:29;8.57;;;6.45;;
21758;SDS011;11041;50.854;20.580;2022-08-21T08:12:56;14.02;;;6.20;;
21758;SDS011;11041;50.854;20.580;2022-08-21T08:15:24;9.07;;;6.57;;
21758;SDS011;11041;50.854;20.580;2022-08-21T08:17:52;11.63;;;6.43;;
21758;SDS011;11041;50.854;20.580;2022-08-21T08:20:21;11.13;;;6.80;;
21758;SDS011;11041;50.854;20.580;2022-08-21T08:22:48;6.45;;;5.82;;
21758;SDS011;11041;50.854;20.580;2022-08-21T08:25:15;15.05;;;7.25;;
21758;SDS011;11041;50.854;20.580;2022-08-21T08:27:43;11.35;;;7.40;;
21758;SDS011;11041;50.854;20.580;2022-08-21T08:30:11;9.32;;;7.20;;
21758;SDS011;11041;50.854;20.580;2022-08-21T08:32:39;9.48;;;7.70;;
21758;SDS011;11041;50.854;20.580;2022-08-21T08:35:07;11.43;;;6.85;;
21758;SDS011;11041;50.854;20.580;2022-08-21T08:37:35;18.08;;;7.95;;
21758;SDS011;11041;50.854;20.580;2022-08-21T08:40:13;13.38;;;7.63;;
21758;SDS011;11041;50.854;20.580;2022-08-21T08:42:57;9.60;;;7.25;;
21758;SDS011;11041;50.854;20.580;2022-08-21T08:45:25;11.02;;;7.28;;
21758;SDS011;11041;50.854;20.580;2022-08-21T08:47:54;10.68;;;7.85;;
21758;SDS011;11041;50.854;20.580;2022-08-21T08:53:15;9.57;;;6.90;;
21758;SDS011;11041;50.854;20.580;2022-08-21T08:55:58;8.07;;;7.28;;
21758;SDS011;11041;50.854;20.580;2022-08-21T08:58:31;12.02;;;8.50;;
21758;SDS011;11041;50.854;20.580;2022-08-21T09:01:05;12.65;;;7.18;;
21758;SDS011;11041;50.854;20.580;2022-08-21T09:03:45;11.63;;;7.68;;
21758;SDS011;11041;50.854;20.580;2022-08-21T09:06:26;10.32;;;7.63;;
21758;SDS011;11041;50.854;20.580;2022-08-21T09:20:32;13.02;;;7.82;;
21758;SDS011;11041;50.854;20.580;2022-08-21T09:26:35;10.88;;;7.78;;
21758;SDS011;11041;50.854;20.580;2022-08-21T09:29:21;12.93;;;8.10;;
21758;SDS011;11041;50.854;20.580;2022-08-21T09:31:55;12.30;;;7.80;;
21758;SDS011;11041;50.854;20.580;2022-08-21T09:34:26;10.57;;;7.38;;
21758;SDS011;11041;50.854;20.580;2022-08-21T09:36:56;14.40;;;8.27;;
21758;SDS011;11041;50.854;20.580;2022-08-21T09:39:28;14.18;;;8.60;;
21758;SDS011;11041;50.854;20.580;2022-08-21T09:42:04;16.23;;;8.10;;
21758;SDS011;11041;50.854;20.580;2022-08-21T09:44:35;9.55;;;7.70;;
21758;SDS011;11041;50.854;20.580;2022-08-21T09:47:08;12.45;;;7.47;;
21758;SDS011;11041;50.854;20.580;2022-08-21T09:49:40;19.60;;;9.48;;
21758;SDS011;11041;50.854;20.580;2022-08-21T09:52:41;9.75;;;7.85;;
21758;SDS011;11041;50.854;20.580;2022-08-21T09:55:07;13.43;;;8.25;;
21758;SDS011;11041;50.854;20.580;2022-08-21T09:58:10;10.70;;;7.57;;
21758;SDS011;11041;50.854;20.580;2022-08-21T10:00:37;11.82;;;7.63;;
21758;SDS011;11041;50.854;20.580;2022-08-21T10:03:10;13.85;;;7.68;;
21758;SDS011;11041;50.854;20.580;2022-08-21T10:05:51;10.73;;;7.30;;
21758;SDS011;11041;50.854;20.580;2022-08-21T10:08:26;13.65;;;8.13;;
21758;SDS011;11041;50.854;20.580;2022-08-21T10:10:57;12.27;;;8.05;;
21758;SDS011;11041;50.854;20.580;2022-08-21T10:17:19;10.15;;;7.78;;
21758;SDS011;11041;50.854;20.580;2022-08-21T10:19:56;14.43;;;7.88;;
21758;SDS011;11041;50.854;20.580;2022-08-21T10:45:38;8.18;;;7.32;;
21758;SDS011;11041;50.854;20.580;2022-08-21T10:54:48;11.48;;;7.93;;
21758;SDS011;11041;50.854;20.580;2022-08-21T11:00:36;8.95;;;7.43;;
21758;SDS011;11041;50.854;20.580;2022-08-21T11:06:22;10.02;;;6.70;;
21758;SDS011;11041;50.854;20.580;2022-08-21T11:08:54;12.55;;;7.45;;
21758;SDS011;11041;50.854;20.580;2022-08-21T11:11:34;11.68;;;7.55;;
21758;SDS011;11041;50.854;20.580;2022-08-21T11:14:22;12.77;;;7.60;;
21758;SDS011;11041;50.854;20.580;2022-08-21T11:17:36;12.98;;;7.72;;
21758;SDS011;11041;50.854;20.580;2022-08-21T11:23:25;8.63;;;7.30;;
21758;SDS011;11041;50.854;20.580;2022-08-21T11:26:34;11.88;;;7.22;;
21758;SDS011;11041;50.854;20.580;2022-08-21T11:29:50;14.68;;;7.40;;
21758;SDS011;11041;50.854;20.580;2022-08-21T11:38:39;10.93;;;7.45;;
21758;SDS011;11041;50.854;20.580;2022-08-21T11:41:29;13.25;;;7.00;;
21758;SDS011;11041;50.854;20.580;2022-08-21T11:47:52;9.68;;;7.38;;
21758;SDS011;11041;50.854;20.580;2022-08-21T11:51:10;14.07;;;7.93;;
21758;SDS011;11041;50.854;20.580;2022-08-21T11:56:59;9.45;;;7.22;;
21758;SDS011;11041;50.854;20.580;2022-08-21T12:00:25;11.93;;;7.00;;
21758;SDS011;11041;50.854;20.580;2022-08-21T12:03:27;11.27;;;6.45;;
21758;SDS011;11041;50.854;20.580;2022-08-21T12:05:52;7.43;;;6.60;;
21758;SDS011;11041;50.854;20.580;2022-08-21T12:08:29;7.07;;;6.20;;
21758;SDS011;11041;50.854;20.580;2022-08-21T12:13:35;10.15;;;7.63;;
21758;SDS011;11041;50.854;20.580;2022-08-21T12:16:10;8.55;;;6.45;;
21758;SDS011;11041;50.854;20.580;2022-08-21T12:18:40;14.25;;;6.90;;
21758;SDS011;11041;50.854;20.580;2022-08-21T12:29:25;12.00;;;6.45;;
21758;SDS011;11041;50.854;20.580;2022-08-21T12:35:21;9.52;;;6.57;;
21758;SDS011;11041;50.854;20.580;2022-08-21T12:40:39;10.75;;;6.43;;
21758;SDS011;11041;50.854;20.580;2022-08-21T12:43:13;16.80;;;6.50;;
21758;SDS011;11041;50.854;20.580;2022-08-21T12:46:07;15.57;;;7.25;;
21758;SDS011;11041;50.854;20.580;2022-08-21T12:54:56;10.70;;;7.07;;
21758;SDS011;11041;50.854;20.580;2022-08-21T12:57:24;7.93;;;6.68;;
21758;SDS011;11041;50.854;20.580;2022-08-21T12:59:58;14.07;;;6.88;;
21758;SDS011;11041;50.854;20.580;2022-08-21T13:02:30;9.52;;;6.43;;
21758;SDS011;11041;50.854;20.580;2022-08-21T13:05:03;8.45;;;6.43;;
21758;SDS011;11041;50.854;20.580;2022-08-21T13:07:35;10.68;;;6.57;;
21758;SDS011;11041;50.854;20.580;2022-08-21T13:10:05;9.57;;;6.22;;
21758;SDS011;11041;50.854;20.580;2022-08-21T13:12:50;7.80;;;5.90;;
21758;SDS011;11041;50.854;20.580;2022-08-21T13:15:25;7.80;;;6.47;;
21758;SDS011;11041;50.854;20.580;2022-08-21T13:18:01;26.80;;;18.38;;
21758;SDS011;11041;50.854;20.580;2022-08-21T13:20:35;27.83;;;25.38;;
21758;SDS011;11041;50.854;20.580;2022-08-21T13:23:07;15.40;;;11.27;;
21758;SDS011;11041;50.854;20.580;2022-08-21T13:25:51;14.85;;;11.50;;
21758;SDS011;11041;50.854;20.580;2022-08-21T13:28:20;7.82;;;6.50;;
21758;SDS011;11041;50.854;20.580;2022-08-21T13:30:49;6.20;;;5.68;;
21758;SDS011;11041;50.854;20.580;2022-08-21T13:33:20;6.78;;;5.60;;
21758;SDS011;11041;50.854;20.580;2022-08-21T13:36:01;5.82;;;5.22;;
21758;SDS011;11041;50.854;20.580;2022-08-21T13:38:34;17.23;;;7.90;;
21758;SDS011;11041;50.854;20.580;2022-08-21T13:41:05;13.48;;;6.53;;
21758;SDS011;11041;50.854;20.580;2022-08-21T13:43:56;8.93;;;5.82;;
21758;SDS011;11041;50.854;20.580;2022-08-21T13:46:47;9.90;;;6.90;;
21758;SDS011;11041;50.854;20.580;2022-08-21T13:49:17;14.18;;;7.60;;
21758;SDS011;11041;50.854;20.580;2022-08-21T13:51:50;9.20;;;5.78;;
21758;SDS011;11041;50.854;20.580;2022-08-21T13:56:56;6.55;;;5.63;;
21758;SDS011;11041;50.854;20.580;2022-08-21T13:59:26;7.45;;;5.50;;
21758;SDS011;11041;50.854;20.580;2022-08-21T14:02:08;7.13;;;5.40;;
21758;SDS011;11041;50.854;20.580;2022-08-21T14:04:39;5.80;;;4.78;;
21758;SDS011;11041;50.854;20.580;2022-08-21T14:07:26;7.00;;;5.57;;
21758;SDS011;11041;50.854;20.580;2022-08-21T14:10:34;5.72;;;4.70;;
21758;SDS011;11041;50.854;20.580;2022-08-21T14:21:06;6.72;;;4.13;;
21758;SDS011;11041;50.854;20.580;2022-08-21T14:27:09;12.20;;;5.20;;
21758;SDS011;11041;50.854;20.580;2022-08-21T14:29:57;19.25;;;5.38;;
21758;SDS011;11041;50.854;20.580;2022-08-21T14:32:38;8.35;;;4.28;;
21758;SDS011;11041;50.854;20.580;2022-08-21T14:35:09;5.72;;;4.65;;
21758;SDS011;11041;50.854;20.580;2022-08-21T14:37:36;11.38;;;4.35;;
21758;SDS011;11041;50.854;20.580;2022-08-21T14:40:09;7.82;;;4.78;;
21758;SDS011;11041;50.854;20.580;2022-08-21T14:42:47;4.85;;;4.18;;
21758;SDS011;11041;50.854;20.580;2022-08-21T14:45:27;17.05;;;5.00;;
21758;SDS011;11041;50.854;20.580;2022-08-21T14:47:57;9.00;;;5.75;;
21758;SDS011;11041;50.854;20.580;2022-08-21T14:50:28;6.93;;;4.63;;
21758;SDS011;11041;50.854;20.580;2022-08-21T14:52:54;5.00;;;4.50;;
21758;SDS011;11041;50.854;20.580;2022-08-21T14:55:25;6.88;;;4.57;;
21758;SDS011;11041;50.854;20.580;2022-08-21T14:57:59;12.38;;;4.50;;
21758;SDS011;11041;50.854;20.580;2022-08-21T15:00:30;4.78;;;4.30;;
21758;SDS011;11041;50.854;20.580;2022-08-21T15:02:56;4.53;;;4.13;;
21758;SDS011;11041;50.854;20.580;2022-08-21T15:05:23;7.70;;;5.05;;
21758;SDS011;11041;50.854;20.580;2022-08-21T15:07:49;5.38;;;4.25;;
21758;SDS011;11041;50.854;20.580;2022-08-21T15:10:16;9.18;;;4.93;;
21758;SDS011;11041;50.854;20.580;2022-08-21T15:12:43;5.93;;;5.43;;
21758;SDS011;11041;50.854;20.580;2022-08-21T15:15:09;8.50;;;5.95;;
21758;SDS011;11041;50.854;20.580;2022-08-21T15:17:36;11.27;;;5.68;;
21758;SDS011;11041;50.854;20.580;2022-08-21T15:20:03;9.27;;;4.60;;
21758;SDS011;11041;50.854;20.580;2022-08-21T15:22:35;6.03;;;4.53;;
21758;SDS011;11041;50.854;20.580;2022-08-21T15:25:01;4.57;;;4.18;;
21758;SDS011;11041;50.854;20.580;2022-08-21T15:27:28;8.18;;;5.30;;
21758;SDS011;11041;50.854;20.580;2022-08-21T15:29:55;13.77;;;5.93;;
21758;SDS011;11041;50.854;20.580;2022-08-21T15:32:23;20.60;;;5.38;;
21758;SDS011;11041;50.854;20.580;2022-08-21T15:34:54;8.68;;;5.20;;
21758;SDS011;11041;50.854;20.580;2022-08-21T15:37:23;5.75;;;4.60;;
21758;SDS011;11041;50.854;20.580;2022-08-21T15:39:51;6.13;;;4.22;;
21758;SDS011;11041;50.854;20.580;2022-08-21T15:42:17;6.85;;;4.22;;
21758;SDS011;11041;50.854;20.580;2022-08-21T15:44:46;9.77;;;4.68;;
21758;SDS011;11041;50.854;20.580;2022-08-21T15:47:15;6.65;;;4.30;;
21758;SDS011;11041;50.854;20.580;2022-08-21T15:49:54;5.13;;;4.57;;
21758;SDS011;11041;50.854;20.580;2022-08-21T15:52:45;4.93;;;4.32;;
21758;SDS011;11041;50.854;20.580;2022-08-21T15:55:12;5.68;;;4.07;;
21758;SDS011;11041;50.854;20.580;2022-08-21T15:57:42;6.20;;;4.10;;
21758;SDS011;11041;50.854;20.580;2022-08-21T16:00:25;6.07;;;4.55;;
21758;SDS011;11041;50.854;20.580;2022-08-21T16:03:07;3.90;;;3.60;;
21758;SDS011;11041;50.854;20.580;2022-08-21T16:05:40;11.23;;;4.35;;
21758;SDS011;11041;50.854;20.580;2022-08-21T16:08:30;7.60;;;6.03;;
21758;SDS011;11041;50.854;20.580;2022-08-21T16:11:01;6.47;;;4.50;;
21758;SDS011;11041;50.854;20.580;2022-08-21T16:13:29;8.10;;;4.50;;
21758;SDS011;11041;50.854;20.580;2022-08-21T16:19:12;5.75;;;4.53;;
21758;SDS011;11041;50.854;20.580;2022-08-21T16:22:08;8.40;;;4.28;;
21758;SDS011;11041;50.854;20.580;2022-08-21T16:24:52;6.53;;;4.50;;
21758;SDS011;11041;50.854;20.580;2022-08-21T16:27:59;12.45;;;5.18;;
21758;SDS011;11041;50.854;20.580;2022-08-21T16:31:30;7.57;;;4.53;;
21758;SDS011;11041;50.854;20.580;2022-08-21T16:33:58;7.85;;;5.60;;
21758;SDS011;11041;50.854;20.580;2022-08-21T16:36:26;6.50;;;4.93;;
21758;SDS011;11041;50.854;20.580;2022-08-21T16:38:54;8.20;;;5.85;;
21758;SDS011;11041;50.854;20.580;2022-08-21T16:41:26;7.45;;;6.00;;
21758;SDS011;11041;50.854;20.580;2022-08-21T16:43:58;7.65;;;6.15;;
21758;SDS011;11041;50.854;20.580;2022-08-21T16:46:31;6.07;;;5.13;;
21758;SDS011;11041;50.854;20.580;2022-08-21T16:49:07;9.27;;;6.25;;
21758;SDS011;11041;50.854;20.580;2022-08-21T16:51:38;8.23;;;6.40;;
21758;SDS011;11041;50.854;20.580;2022-08-21T16:54:08;10.35;;;6.45;;
21758;SDS011;11041;50.854;20.580;2022-08-21T16:56:36;9.32;;;6.43;;
21758;SDS011;11041;50.854;20.580;2022-08-21T16:59:04;17.50;;;6.10;;
21758;SDS011;11041;50.854;20.580;2022-08-21T17:01:31;11.25;;;6.25;;
21758;SDS011;11041;50.854;20.580;2022-08-21T17:04:05;18.67;;;6.82;;
21758;SDS011;11041;50.854;20.580;2022-08-21T17:09:43;7.35;;;5.60;;
21758;SDS011;11041;50.854;20.580;2022-08-21T17:13:06;7.38;;;5.53;;
21758;SDS011;11041;50.854;20.580;2022-08-21T17:15:38;8.25;;;6.82;;
21758;SDS011;11041;50.854;20.580;2022-08-21T17:18:27;12.50;;;8.05;;
21758;SDS011;11041;50.854;20.580;2022-08-21T17:21:34;8.88;;;7.88;;
21758;SDS011;11041;50.854;20.580;2022-08-21T17:27:16;12.82;;;8.23;;
21758;SDS011;11041;50.854;20.580;2022-08-21T17:29:47;12.32;;;9.57;;
21758;SDS011;11041;50.854;20.580;2022-08-21T17:32:17;13.38;;;6.68;;